sensor_id;sensor_type;location;lat;lon;timestamp;temperature;humidity
12843;DHT22;35724;49.324;-123.118;2024-02-14T00:03:10;8.60;99.90
12843;DHT22;35724;49.324;-123.118;2024-02-14T00:13:19;8.40;99.90
12843;DHT22;35724;49.324;-123.118;2024-02-14T00:23:26;8.30;99.90
12843;DHT22;35724;49.324;-123.118;2024-02-14T00:33:35;8.10;99.90
12843;DHT22;35724;49.324;-123.118;2024-02-14T00:43:42;8.10;99.90
12843;DHT22;35724;49.324;-123.118;2024-02-14T00:53:52;7.90;99.90
12843;DHT22;35724;49.324;-123.118;2024-02-14T01:03:59;7.50;99.90
12843;DHT22;35724;49.324;-123.118;2024-02-14T01:14:09;7.10;99.90
12843;DHT22;35724;49.324;-123.118;2024-02-14T01:24:18;6.80;99.90
12843;DHT22;35724;49.324;-123.118;2024-02-14T01:34:28;6.50;99.90
12843;DHT22;35724;49.324;-123.118;2024-02-14T01:44:36;6.10;99.90
12843;DHT22;35724;49.324;-123.118;2024-02-14T01:54:46;6.00;99.90
12843;DHT22;35724;49.324;-123.118;2024-02-14T02:04:53;5.80;99.90
12843;DHT22;35724;49.324;-123.118;2024-02-14T02:15:03;5.50;99.90
12843;DHT22;35724;49.324;-123.118;2024-02-14T02:25:32;5.30;99.90
12843;DHT22;35724;49.324;-123.118;2024-02-14T02:35:52;5.20;99.90
12843;DHT22;35724;49.324;-123.118;2024-02-14T02:46:20;5.10;99.90
12843;DHT22;35724;49.324;-123.118;2024-02-14T02:56:50;4.80;99.90
12843;DHT22;35724;49.324;-123.118;2024-02-14T03:07:00;4.70;99.90
12843;DHT22;35724;49.324;-123.118;2024-02-14T03:17:32;4.60;99.90
12843;DHT22;35724;49.324;-123.118;2024-02-14T03:27:42;4.40;99.90
12843;DHT22;35724;49.324;-123.118;2024-02-14T03:37:52;4.30;99.90
12843;DHT22;35724;49.324;-123.118;2024-02-14T03:48:01;4.20;99.90
12843;DHT22;35724;49.324;-123.118;2024-02-14T03:58:09;3.80;99.90
12843;DHT22;35724;49.324;-123.118;2024-02-14T04:08:18;3.50;99.90
12843;DHT22;35724;49.324;-123.118;2024-02-14T04:18:25;3.30;99.90
12843;DHT22;35724;49.324;-123.118;2024-02-14T04:28:34;3.00;99.90
12843;DHT22;35724;49.324;-123.118;2024-02-14T04:38:41;2.80;99.90
12843;DHT22;35724;49.324;-123.118;2024-02-14T04:48:51;2.70;99.90
12843;DHT22;35724;49.324;-123.118;2024-02-14T04:58:59;2.80;99.90
12843;DHT22;35724;49.324;-123.118;2024-02-14T05:09:08;3.10;99.20
12843;DHT22;35724;49.324;-123.118;2024-02-14T05:19:16;3.00;99.90
12843;DHT22;35724;49.324;-123.118;2024-02-14T05:29:28;2.60;99.90
12843;DHT22;35724;49.324;-123.118;2024-02-14T05:39:39;2.50;99.90
12843;DHT22;35724;49.324;-123.118;2024-02-14T05:49:48;2.50;99.90
12843;DHT22;35724;49.324;-123.118;2024-02-14T05:59:56;2.20;99.90
12843;DHT22;35724;49.324;-123.118;2024-02-14T06:10:05;2.00;99.90
12843;DHT22;35724;49.324;-123.118;2024-02-14T06:20:13;1.80;99.90
12843;DHT22;35724;49.324;-123.118;2024-02-14T06:30:22;1.80;99.90
12843;DHT22;35724;49.324;-123.118;2024-02-14T06:40:34;1.80;99.90
12843;DHT22;35724;49.324;-123.118;2024-02-14T06:50:43;1.70;99.90
12843;DHT22;35724;49.324;-123.118;2024-02-14T07:00:51;1.50;99.90
12843;DHT22;35724;49.324;-123.118;2024-02-14T07:11:00;1.40;99.90
12843;DHT22;35724;49.324;-123.118;2024-02-14T07:21:07;1.30;99.90
12843;DHT22;35724;49.324;-123.118;2024-02-14T07:31:16;1.10;99.90
12843;DHT22;35724;49.324;-123.118;2024-02-14T07:41:23;0.90;99.90
12843;DHT22;35724;49.324;-123.118;2024-02-14T07:51:35;0.80;99.90
12843;DHT22;35724;49.324;-123.118;2024-02-14T08:01:43;0.80;99.90
12843;DHT22;35724;49.324;-123.118;2024-02-14T08:11:52;0.70;99.90
12843;DHT22;35724;49.324;-123.118;2024-02-14T08:22:00;0.60;99.90
12843;DHT22;35724;49.324;-123.118;2024-02-14T08:32:09;0.60;99.90
12843;DHT22;35724;49.324;-123.118;2024-02-14T08:42:16;0.70;99.90
12843;DHT22;35724;49.324;-123.118;2024-02-14T08:52:25;0.60;99.90
12843;DHT22;35724;49.324;-123.118;2024-02-14T09:02:34;0.40;99.90
12843;DHT22;35724;49.324;-123.118;2024-02-14T09:12:43;0.30;99.90
12843;DHT22;35724;49.324;-123.118;2024-02-14T09:22:50;0.60;99.90
12843;DHT22;35724;49.324;-123.118;2024-02-14T09:33:01;0.50;99.90
12843;DHT22;35724;49.324;-123.118;2024-02-14T09:43:20;0.30;99.90
12843;DHT22;35724;49.324;-123.118;2024-02-14T09:53:33;0.20;99.90
12843;DHT22;35724;49.324;-123.118;2024-02-14T10:03:41;0.10;99.90
12843;DHT22;35724;49.324;-123.118;2024-02-14T10:13:50;0.10;99.90
12843;DHT22;35724;49.324;-123.118;2024-02-14T10:24:00;0.00;99.90
12843;DHT22;35724;49.324;-123.118;2024-02-14T10:34:09;-0.10;99.90
12843;DHT22;35724;49.324;-123.118;2024-02-14T10:44:17;-0.10;99.90
12843;DHT22;35724;49.324;-123.118;2024-02-14T10:54:26;-0.20;99.90
12843;DHT22;35724;49.324;-123.118;2024-02-14T11:04:34;-0.30;99.90
12843;DHT22;35724;49.324;-123.118;2024-02-14T11:14:44;-0.40;99.90
12843;DHT22;35724;49.324;-123.118;2024-02-14T11:24:51;-0.50;99.90
12843;DHT22;35724;49.324;-123.118;2024-02-14T11:35:01;-0.50;99.90
12843;DHT22;35724;49.324;-123.118;2024-02-14T11:45:10;-0.50;99.90
12843;DHT22;35724;49.324;-123.118;2024-02-14T11:55:28;-0.50;99.90
12843;DHT22;35724;49.324;-123.118;2024-02-14T12:05:39;-0.50;99.90
12843;DHT22;35724;49.324;-123.118;2024-02-14T12:15:50;-0.60;99.90
12843;DHT22;35724;49.324;-123.118;2024-02-14T12:26:02;-0.60;99.90
12843;DHT22;35724;49.324;-123.118;2024-02-14T12:36:11;-0.60;99.90
12843;DHT22;35724;49.324;-123.118;2024-02-14T12:46:18;-0.60;99.90
12843;DHT22;35724;49.324;-123.118;2024-02-14T12:56:30;-0.70;99.90
12843;DHT22;35724;49.324;-123.118;2024-02-14T13:06:39;-0.80;99.90
12843;DHT22;35724;49.324;-123.118;2024-02-14T13:16:48;-0.80;99.90
12843;DHT22;35724;49.324;-123.118;2024-02-14T13:26:56;-0.80;99.90
12843;DHT22;35724;49.324;-123.118;2024-02-14T13:37:06;-0.80;99.90
12843;DHT22;35724;49.324;-123.118;2024-02-14T13:47:17;-0.80;99.90
12843;DHT22;35724;49.324;-123.118;2024-02-14T13:57:27;-0.80;99.90
12843;DHT22;35724;49.324;-123.118;2024-02-14T14:07:35;-0.80;99.90
12843;DHT22;35724;49.324;-123.118;2024-02-14T14:18:02;-0.80;99.90
12843;DHT22;35724;49.324;-123.118;2024-02-14T14:28:09;-0.90;99.90
12843;DHT22;35724;49.324;-123.118;2024-02-14T14:38:18;-0.90;99.90
12843;DHT22;35724;49.324;-123.118;2024-02-14T14:48:26;-0.90;99.90
12843;DHT22;35724;49.324;-123.118;2024-02-14T14:58:35;-0.90;99.90
12843;DHT22;35724;49.324;-123.118;2024-02-14T15:08:44;-0.90;99.90
12843;DHT22;35724;49.324;-123.118;2024-02-14T15:18:54;-1.00;99.90
12843;DHT22;35724;49.324;-123.118;2024-02-14T15:29:01;-1.10;99.90
12843;DHT22;35724;49.324;-123.118;2024-02-14T15:39:23;-1.10;99.90
12843;DHT22;35724;49.324;-123.118;2024-02-14T15:49:30;-1.00;99.90
12843;DHT22;35724;49.324;-123.118;2024-02-14T15:59:41;-1.00;99.90
12843;DHT22;35724;49.324;-123.118;2024-02-14T16:09:49;-0.90;99.90
12843;DHT22;35724;49.324;-123.118;2024-02-14T16:19:58;-0.70;99.90
12843;DHT22;35724;49.324;-123.118;2024-02-14T16:30:07;-0.60;99.90
12843;DHT22;35724;49.324;-123.118;2024-02-14T16:40:17;-0.50;99.90
12843;DHT22;35724;49.324;-123.118;2024-02-14T16:50:25;-0.10;99.90
12843;DHT22;35724;49.324;-123.118;2024-02-14T17:00:35;0.80;99.90
12843;DHT22;35724;49.324;-123.118;2024-02-14T17:10:44;1.20;99.90
12843;DHT22;35724;49.324;-123.118;2024-02-14T17:20:52;1.90;99.90
12843;DHT22;35724;49.324;-123.118;2024-02-14T17:30:59;2.10;99.90
12843;DHT22;35724;49.324;-123.118;2024-02-14T17:41:08;2.40;99.90
12843;DHT22;35724;49.324;-123.118;2024-02-14T17:51:16;2.50;99.90
12843;DHT22;35724;49.324;-123.118;2024-02-14T18:01:25;2.50;99.90
12843;DHT22;35724;49.324;-123.118;2024-02-14T18:11:33;3.30;99.90
12843;DHT22;35724;49.324;-123.118;2024-02-14T18:21:42;4.60;92.50
12843;DHT22;35724;49.324;-123.118;2024-02-14T18:31:49;6.10;90.00
12843;DHT22;35724;49.324;-123.118;2024-02-14T18:41:58;8.00;68.70
12843;DHT22;35724;49.324;-123.118;2024-02-14T18:52:05;10.30;55.40
12843;DHT22;35724;49.324;-123.118;2024-02-14T19:02:14;11.00;48.30
12843;DHT22;35724;49.324;-123.118;2024-02-14T19:12:22;13.00;46.80
12843;DHT22;35724;49.324;-123.118;2024-02-14T19:22:30;9.40;55.30
12843;DHT22;35724;49.324;-123.118;2024-02-14T19:32:38;9.00;54.80
12843;DHT22;35724;49.324;-123.118;2024-02-14T19:42:47;9.40;50.20
12843;DHT22;35724;49.324;-123.118;2024-02-14T19:52:54;9.30;49.10
12843;DHT22;35724;49.324;-123.118;2024-02-14T20:03:03;8.80;51.30
12843;DHT22;35724;49.324;-123.118;2024-02-14T20:13:11;8.80;45.60
12843;DHT22;35724;49.324;-123.118;2024-02-14T20:23:20;8.60;43.90
12843;DHT22;35724;49.324;-123.118;2024-02-14T20:33:27;8.60;53.20
12843;DHT22;35724;49.324;-123.118;2024-02-14T20:43:36;8.50;61.50
12843;DHT22;35724;49.324;-123.118;2024-02-14T20:53:43;8.50;56.50
12843;DHT22;35724;49.324;-123.118;2024-02-14T21:03:52;8.50;57.80
12843;DHT22;35724;49.324;-123.118;2024-02-14T21:14:02;8.30;63.10
12843;DHT22;35724;49.324;-123.118;2024-02-14T21:24:12;8.40;67.00
12843;DHT22;35724;49.324;-123.118;2024-02-14T21:34:19;8.40;64.00
12843;DHT22;35724;49.324;-123.118;2024-02-14T21:44:28;8.30;71.70
12843;DHT22;35724;49.324;-123.118;2024-02-14T21:54:36;8.10;75.40
12843;DHT22;35724;49.324;-123.118;2024-02-14T22:04:45;9.20;70.40
12843;DHT22;35724;49.324;-123.118;2024-02-14T22:14:53;9.00;66.40
12843;DHT22;35724;49.324;-123.118;2024-02-14T22:25:02;9.10;66.90
12843;DHT22;35724;49.324;-123.118;2024-02-14T22:35:11;9.00;64.50
12843;DHT22;35724;49.324;-123.118;2024-02-14T22:45:20;8.70;77.10
12843;DHT22;35724;49.324;-123.118;2024-02-14T22:55:28;8.40;82.40
12843;DHT22;35724;49.324;-123.118;2024-02-14T23:05:37;7.90;84.20
12843;DHT22;35724;49.324;-123.118;2024-02-14T23:15:45;7.70;84.20
12843;DHT22;35724;49.324;-123.118;2024-02-14T23:25:58;8.10;91.40
12843;DHT22;35724;49.324;-123.118;2024-02-14T23:36:06;8.50;91.20
12843;DHT22;35724;49.324;-123.118;2024-02-14T23:46:15;8.50;86.90
12843;DHT22;35724;49.324;-123.118;2024-02-14T23:56:22;8.50;78.90
